Список аэропортов
Фактическая погода:

25 июня, 11:30
Температура: +33°C (+33.0*)
Ветер: южный 2 м/с
Давление: *760 мм
Без существ. явл.
Время (МСК)Темп. СВетерВлажностьДавлениеОблачностьОсадки
09:00+27З, 1 м/с59%1016 гПаясно
10:00+29Ю, 1 м/с51%1016 гПаясно
11:00+31Ю, 2 м/с46%1015 гПаясно
12:00+32Ю, 2 м/с42%1015 гПаясно
13:00+34Ю, 3 м/с37%1015 гПаясно
14:00+35Ю, 3 м/с33%1014 гПаясно
15:00+36Ю, 3 м/с31%1014 гПаясно
16:00+36ЮЗ, 4 м/с30%1013 гПаясно
17:00+36ЮЗ, 5 м/с28%1013 гПаясно
18:00+35ЮЗ, 5 м/с28%1013 гПаясно
19:00+34З, 4 м/с26%1013 гПаясно
20:00+33З, 3 м/с30%1013 гПаясно
21:00+30З, 1 м/с44%1013 гПаясно
22:00+29В, 1 м/с52%1014 гПаясно
23:00+27В, 1 м/с59%1014 гПаясно
26 июня
00:00+26В, 1 м/с65%1014 гПаясно
01:00+25С, 1 м/с66%1014 гПаясно
02:00+24С, 2 м/с66%1014 гПаясно
03:00+23СВ, 2 м/с67%1014 гПаясно
04:00+22С, 1 м/с71%1014 гПаясно
05:00+22С, 2 м/с69%1014 гПаясно
06:00+22С, 2 м/с70%1014 гПаясно
07:00+22С, 1 м/с71%1014 гПаясно
08:00+23С, 1 м/с67%1013 гПаясно
09:00+26СЗ, 2 м/с57%1013 гПаясно
10:00+27СЗ, 1 м/с52%1013 гПаясно
11:00+29Ю, 1 м/с49%1013 гПаясно
12:00+30Ю, 2 м/с47%1013 гПаясно
13:00+32ЮВ, 3 м/с44%1013 гПаясно
14:00+32Ю, 4 м/с42%1012 гПаясно
15:00+33Ю, 4 м/с41%1012 гПамалооблачно
16:00+33Ю, 5 м/с40%1012 гПамалооблачно
17:00+32Ю, 4 м/с41%1012 гПаоблачно
18:00+32Ю, 4 м/с44%1012 гПамалооблачно
19:00+31Ю, 4 м/с48%1012 гПамалооблачно
20:00+30Ю, 4 м/с56%1012 гПаясно
21:00+28Ю, 3 м/с63%1012 гПаясно
22:00+27ЮВ, 3 м/с71%1012 гПаясно
23:00+26Ю, 3 м/с78%1013 гПаясно
27 июня
00:00+25Ю, 2 м/с84%1013 гПамалооблачно
01:00+24ЮВ, 1 м/с89%1014 гПас прояснениями
02:00+24Штиль 91%1014 гПас прояснениями
03:00+23Штиль 92%1014 гПас прояснениями
04:00+23Штиль 91%1014 гПас прояснениями
05:00+22Штиль 90%1014 гПаоблачно
06:00+22С, 1 м/с90%1014 гПас прояснениями
07:00+22С, 1 м/с87%1014 гПамалооблачно
08:00+23СЗ, 1 м/с79%1014 гПамалооблачно
09:00+25З, 1 м/с71%1014 гПаясно